sensor_id;sensor_type;location;lat;lon;timestamp;P1;durP1;ratioP1;P2;durP2;ratioP2
13331;SDS011;6735;51.456;12.626;2022-08-19T00:01:42;25.07;;;23.07;;
13331;SDS011;6735;51.456;12.626;2022-08-19T00:04:10;24.97;;;22.77;;
13331;SDS011;6735;51.456;12.626;2022-08-19T00:06:38;25.03;;;22.83;;
13331;SDS011;6735;51.456;12.626;2022-08-19T00:09:06;25.40;;;23.03;;
13331;SDS011;6735;51.456;12.626;2022-08-19T00:11:34;26.67;;;24.37;;
13331;SDS011;6735;51.456;12.626;2022-08-19T00:14:01;27.13;;;24.83;;
13331;SDS011;6735;51.456;12.626;2022-08-19T00:16:27;27.83;;;24.97;;
13331;SDS011;6735;51.456;12.626;2022-08-19T00:18:53;27.27;;;24.73;;
13331;SDS011;6735;51.456;12.626;2022-08-19T00:21:20;29.47;;;26.70;;
13331;SDS011;6735;51.456;12.626;2022-08-19T00:23:45;27.97;;;25.37;;
13331;SDS011;6735;51.456;12.626;2022-08-19T00:26:11;28.23;;;25.73;;
13331;SDS011;6735;51.456;12.626;2022-08-19T00:28:37;28.60;;;25.90;;
13331;SDS011;6735;51.456;12.626;2022-08-19T00:31:03;27.70;;;25.10;;
13331;SDS011;6735;51.456;12.626;2022-08-19T00:33:30;28.83;;;26.13;;
13331;SDS011;6735;51.456;12.626;2022-08-19T00:35:59;28.83;;;26.40;;
13331;SDS011;6735;51.456;12.626;2022-08-19T00:38:26;29.33;;;26.63;;
13331;SDS011;6735;51.456;12.626;2022-08-19T00:40:52;29.43;;;26.60;;
13331;SDS011;6735;51.456;12.626;2022-08-19T00:43:19;31.07;;;28.20;;
13331;SDS011;6735;51.456;12.626;2022-08-19T00:45:46;30.67;;;27.77;;
13331;SDS011;6735;51.456;12.626;2022-08-19T00:48:12;31.07;;;28.10;;
13331;SDS011;6735;51.456;12.626;2022-08-19T00:50:39;31.30;;;28.20;;
13331;SDS011;6735;51.456;12.626;2022-08-19T00:53:07;31.50;;;28.40;;
13331;SDS011;6735;51.456;12.626;2022-08-19T00:55:34;31.83;;;28.73;;
13331;SDS011;6735;51.456;12.626;2022-08-19T00:58:02;31.17;;;27.97;;
13331;SDS011;6735;51.456;12.626;2022-08-19T01:00:31;32.47;;;29.17;;
13331;SDS011;6735;51.456;12.626;2022-08-19T01:03:01;31.37;;;28.47;;
13331;SDS011;6735;51.456;12.626;2022-08-19T01:05:28;31.60;;;28.53;;
13331;SDS011;6735;51.456;12.626;2022-08-19T01:07:58;32.77;;;29.60;;
13331;SDS011;6735;51.456;12.626;2022-08-19T01:10:27;30.90;;;28.20;;
13331;SDS011;6735;51.456;12.626;2022-08-19T01:12:58;31.90;;;28.80;;
13331;SDS011;6735;51.456;12.626;2022-08-19T01:15:26;31.10;;;28.10;;
13331;SDS011;6735;51.456;12.626;2022-08-19T01:17:56;32.87;;;29.77;;
13331;SDS011;6735;51.456;12.626;2022-08-19T01:20:24;31.47;;;28.57;;
13331;SDS011;6735;51.456;12.626;2022-08-19T01:22:54;31.93;;;28.87;;
13331;SDS011;6735;51.456;12.626;2022-08-19T01:25:23;30.70;;;27.90;;
13331;SDS011;6735;51.456;12.626;2022-08-19T01:27:53;30.83;;;27.93;;
13331;SDS011;6735;51.456;12.626;2022-08-19T01:30:24;31.50;;;28.60;;
13331;SDS011;6735;51.456;12.626;2022-08-19T01:32:53;32.13;;;29.07;;
13331;SDS011;6735;51.456;12.626;2022-08-19T01:35:19;31.13;;;28.43;;
13331;SDS011;6735;51.456;12.626;2022-08-19T01:37:49;32.43;;;29.20;;
13331;SDS011;6735;51.456;12.626;2022-08-19T01:40:19;32.00;;;28.90;;
13331;SDS011;6735;51.456;12.626;2022-08-19T01:42:50;32.77;;;29.57;;
13331;SDS011;6735;51.456;12.626;2022-08-19T01:45:17;31.50;;;28.63;;
13331;SDS011;6735;51.456;12.626;2022-08-19T01:47:43;31.33;;;28.30;;
13331;SDS011;6735;51.456;12.626;2022-08-19T01:50:09;30.90;;;28.03;;
13331;SDS011;6735;51.456;12.626;2022-08-19T01:52:36;31.00;;;28.13;;
13331;SDS011;6735;51.456;12.626;2022-08-19T01:55:04;31.47;;;28.50;;
13331;SDS011;6735;51.456;12.626;2022-08-19T01:57:31;31.53;;;28.37;;
13331;SDS011;6735;51.456;12.626;2022-08-19T01:59:57;31.03;;;28.20;;
13331;SDS011;6735;51.456;12.626;2022-08-19T02:02:23;29.50;;;26.93;;
13331;SDS011;6735;51.456;12.626;2022-08-19T02:04:48;31.63;;;28.67;;
13331;SDS011;6735;51.456;12.626;2022-08-19T02:07:15;28.50;;;26.03;;
13331;SDS011;6735;51.456;12.626;2022-08-19T02:09:43;29.80;;;26.90;;
13331;SDS011;6735;51.456;12.626;2022-08-19T02:12:08;30.10;;;27.23;;
13331;SDS011;6735;51.456;12.626;2022-08-19T02:14:35;30.17;;;27.57;;
13331;SDS011;6735;51.456;12.626;2022-08-19T02:17:01;31.43;;;28.63;;
13331;SDS011;6735;51.456;12.626;2022-08-19T02:19:27;32.03;;;29.03;;
13331;SDS011;6735;51.456;12.626;2022-08-19T02:21:52;30.97;;;28.13;;
13331;SDS011;6735;51.456;12.626;2022-08-19T02:24:18;30.87;;;28.07;;
13331;SDS011;6735;51.456;12.626;2022-08-19T02:26:43;31.80;;;29.00;;
13331;SDS011;6735;51.456;12.626;2022-08-19T02:29:09;28.47;;;26.07;;
13331;SDS011;6735;51.456;12.626;2022-08-19T02:31:34;29.73;;;27.10;;
13331;SDS011;6735;51.456;12.626;2022-08-19T02:34:01;28.97;;;26.30;;
13331;SDS011;6735;51.456;12.626;2022-08-19T02:36:27;28.27;;;25.87;;
13331;SDS011;6735;51.456;12.626;2022-08-19T02:38:53;26.23;;;24.00;;
13331;SDS011;6735;51.456;12.626;2022-08-19T02:41:20;28.53;;;26.03;;
13331;SDS011;6735;51.456;12.626;2022-08-19T02:43:48;29.20;;;26.60;;
13331;SDS011;6735;51.456;12.626;2022-08-19T02:46:19;28.67;;;26.17;;
13331;SDS011;6735;51.456;12.626;2022-08-19T02:48:48;28.20;;;25.80;;
13331;SDS011;6735;51.456;12.626;2022-08-19T02:51:16;29.33;;;26.53;;
13331;SDS011;6735;51.456;12.626;2022-08-19T02:53:44;29.23;;;26.63;;
13331;SDS011;6735;51.456;12.626;2022-08-19T02:56:10;28.53;;;26.20;;
13331;SDS011;6735;51.456;12.626;2022-08-19T02:58:36;28.50;;;25.90;;
13331;SDS011;6735;51.456;12.626;2022-08-19T03:01:01;28.93;;;26.47;;
13331;SDS011;6735;51.456;12.626;2022-08-19T03:03:27;26.70;;;24.43;;
13331;SDS011;6735;51.456;12.626;2022-08-19T03:06:02;28.43;;;26.03;;
13331;SDS011;6735;51.456;12.626;2022-08-19T03:08:32;28.00;;;25.60;;
13331;SDS011;6735;51.456;12.626;2022-08-19T03:10:58;26.80;;;24.33;;
13331;SDS011;6735;51.456;12.626;2022-08-19T03:13:23;26.20;;;23.97;;
13331;SDS011;6735;51.456;12.626;2022-08-19T03:15:49;26.60;;;24.20;;
13331;SDS011;6735;51.456;12.626;2022-08-19T03:18:15;24.57;;;22.47;;
13331;SDS011;6735;51.456;12.626;2022-08-19T03:20:45;26.63;;;24.20;;
13331;SDS011;6735;51.456;12.626;2022-08-19T03:23:12;22.70;;;20.80;;
13331;SDS011;6735;51.456;12.626;2022-08-19T03:25:39;22.60;;;20.67;;
13331;SDS011;6735;51.456;12.626;2022-08-19T03:28:07;24.97;;;22.77;;
13331;SDS011;6735;51.456;12.626;2022-08-19T03:30:34;23.63;;;21.73;;
13331;SDS011;6735;51.456;12.626;2022-08-19T03:32:59;20.57;;;18.87;;
13331;SDS011;6735;51.456;12.626;2022-08-19T03:35:25;24.83;;;22.57;;
13331;SDS011;6735;51.456;12.626;2022-08-19T03:37:51;23.67;;;21.47;;
13331;SDS011;6735;51.456;12.626;2022-08-19T03:40:17;23.93;;;21.83;;
13331;SDS011;6735;51.456;12.626;2022-08-19T03:42:43;23.50;;;21.50;;
13331;SDS011;6735;51.456;12.626;2022-08-19T03:45:11;21.63;;;19.73;;
13331;SDS011;6735;51.456;12.626;2022-08-19T03:47:36;19.20;;;17.70;;
13331;SDS011;6735;51.456;12.626;2022-08-19T03:50:02;17.87;;;16.47;;
13331;SDS011;6735;51.456;12.626;2022-08-19T03:52:29;18.80;;;17.27;;
13331;SDS011;6735;51.456;12.626;2022-08-19T03:54:54;18.50;;;17.00;;
13331;SDS011;6735;51.456;12.626;2022-08-19T03:57:20;19.07;;;17.60;;
13331;SDS011;6735;51.456;12.626;2022-08-19T03:59:45;19.33;;;17.83;;
13331;SDS011;6735;51.456;12.626;2022-08-19T04:02:11;17.20;;;15.87;;
13331;SDS011;6735;51.456;12.626;2022-08-19T04:04:39;16.77;;;15.57;;
13331;SDS011;6735;51.456;12.626;2022-08-19T04:07:06;18.63;;;17.03;;
13331;SDS011;6735;51.456;12.626;2022-08-19T04:09:33;17.63;;;16.13;;
13331;SDS011;6735;51.456;12.626;2022-08-19T04:11:59;18.00;;;16.50;;
13331;SDS011;6735;51.456;12.626;2022-08-19T04:14:26;17.60;;;16.03;;
13331;SDS011;6735;51.456;12.626;2022-08-19T04:16:55;17.37;;;15.87;;
13331;SDS011;6735;51.456;12.626;2022-08-19T04:19:21;17.27;;;15.57;;
13331;SDS011;6735;51.456;12.626;2022-08-19T04:21:49;18.63;;;17.03;;
13331;SDS011;6735;51.456;12.626;2022-08-19T04:24:16;17.47;;;16.03;;
13331;SDS011;6735;51.456;12.626;2022-08-19T04:26:42;18.87;;;17.37;;
13331;SDS011;6735;51.456;12.626;2022-08-19T04:29:12;18.03;;;16.63;;
13331;SDS011;6735;51.456;12.626;2022-08-19T04:31:44;18.03;;;16.63;;
13331;SDS011;6735;51.456;12.626;2022-08-19T04:34:10;19.50;;;17.67;;
13331;SDS011;6735;51.456;12.626;2022-08-19T04:36:38;20.27;;;18.50;;
13331;SDS011;6735;51.456;12.626;2022-08-19T04:39:07;20.53;;;18.90;;
13331;SDS011;6735;51.456;12.626;2022-08-19T04:41:38;21.97;;;20.00;;
13331;SDS011;6735;51.456;12.626;2022-08-19T04:44:22;22.10;;;20.30;;
13331;SDS011;6735;51.456;12.626;2022-08-19T04:46:48;23.33;;;21.33;;
13331;SDS011;6735;51.456;12.626;2022-08-19T04:49:15;23.37;;;21.57;;
13331;SDS011;6735;51.456;12.626;2022-08-19T04:51:43;23.10;;;21.20;;
13331;SDS011;6735;51.456;12.626;2022-08-19T04:54:10;24.10;;;22.10;;
13331;SDS011;6735;51.456;12.626;2022-08-19T04:56:36;23.67;;;21.67;;
13331;SDS011;6735;51.456;12.626;2022-08-19T04:59:04;25.60;;;23.50;;
13331;SDS011;6735;51.456;12.626;2022-08-19T05:01:30;25.63;;;23.43;;
13331;SDS011;6735;51.456;12.626;2022-08-19T05:04:01;26.63;;;24.43;;
13331;SDS011;6735;51.456;12.626;2022-08-19T05:06:29;25.93;;;23.83;;
13331;SDS011;6735;51.456;12.626;2022-08-19T05:08:57;26.20;;;24.10;;
13331;SDS011;6735;51.456;12.626;2022-08-19T05:11:24;26.80;;;24.53;;
13331;SDS011;6735;51.456;12.626;2022-08-19T05:13:52;28.20;;;25.70;;
13331;SDS011;6735;51.456;12.626;2022-08-19T05:16:19;27.43;;;24.67;;
13331;SDS011;6735;51.456;12.626;2022-08-19T05:18:45;25.77;;;23.70;;
13331;SDS011;6735;51.456;12.626;2022-08-19T05:21:30;27.73;;;25.37;;
13331;SDS011;6735;51.456;12.626;2022-08-19T05:24:14;27.43;;;25.10;;
13331;SDS011;6735;51.456;12.626;2022-08-19T05:26:43;26.77;;;24.57;;
13331;SDS011;6735;51.456;12.626;2022-08-19T05:29:11;27.67;;;25.27;;
13331;SDS011;6735;51.456;12.626;2022-08-19T05:31:37;28.33;;;26.03;;
13331;SDS011;6735;51.456;12.626;2022-08-19T05:34:03;28.57;;;25.97;;
13331;SDS011;6735;51.456;12.626;2022-08-19T05:36:33;28.33;;;26.03;;
13331;SDS011;6735;51.456;12.626;2022-08-19T05:39:04;30.87;;;28.27;;
13331;SDS011;6735;51.456;12.626;2022-08-19T05:41:37;29.60;;;26.97;;
13331;SDS011;6735;51.456;12.626;2022-08-19T05:44:10;30.83;;;28.23;;
13331;SDS011;6735;51.456;12.626;2022-08-19T05:46:36;31.60;;;28.83;;
13331;SDS011;6735;51.456;12.626;2022-08-19T05:49:03;32.90;;;30.20;;
13331;SDS011;6735;51.456;12.626;2022-08-19T05:51:31;34.30;;;31.40;;
13331;SDS011;6735;51.456;12.626;2022-08-19T05:53:57;36.87;;;33.53;;
13331;SDS011;6735;51.456;12.626;2022-08-19T05:56:23;35.80;;;32.40;;
13331;SDS011;6735;51.456;12.626;2022-08-19T05:58:49;36.33;;;33.10;;
13331;SDS011;6735;51.456;12.626;2022-08-19T06:01:15;36.70;;;33.40;;
13331;SDS011;6735;51.456;12.626;2022-08-19T06:03:42;38.57;;;34.77;;
13331;SDS011;6735;51.456;12.626;2022-08-19T06:06:09;39.37;;;35.97;;
13331;SDS011;6735;51.456;12.626;2022-08-19T06:08:36;40.60;;;36.90;;
13331;SDS011;6735;51.456;12.626;2022-08-19T06:11:22;44.20;;;39.80;;
13331;SDS011;6735;51.456;12.626;2022-08-19T06:13:50;42.27;;;38.27;;
13331;SDS011;6735;51.456;12.626;2022-08-19T06:16:21;42.43;;;38.43;;
13331;SDS011;6735;51.456;12.626;2022-08-19T06:18:51;43.13;;;38.90;;
13331;SDS011;6735;51.456;12.626;2022-08-19T06:21:18;45.47;;;40.97;;
13331;SDS011;6735;51.456;12.626;2022-08-19T06:23:45;45.77;;;41.57;;
13331;SDS011;6735;51.456;12.626;2022-08-19T06:26:12;43.13;;;39.20;;
13331;SDS011;6735;51.456;12.626;2022-08-19T06:28:39;50.07;;;42.90;;
13331;SDS011;6735;51.456;12.626;2022-08-19T06:31:12;46.60;;;41.17;;
13331;SDS011;6735;51.456;12.626;2022-08-19T06:33:42;49.20;;;41.43;;
13331;SDS011;6735;51.456;12.626;2022-08-19T06:36:23;43.97;;;39.50;;
13331;SDS011;6735;51.456;12.626;2022-08-19T06:38:57;41.90;;;37.73;;
13331;SDS011;6735;51.456;12.626;2022-08-19T06:41:24;51.10;;;40.90;;
13331;SDS011;6735;51.456;12.626;2022-08-19T06:43:50;88.63;;;46.33;;
13331;SDS011;6735;51.456;12.626;2022-08-19T06:46:17;43.23;;;38.37;;
13331;SDS011;6735;51.456;12.626;2022-08-19T06:48:44;79.33;;;44.40;;
13331;SDS011;6735;51.456;12.626;2022-08-19T06:51:10;44.07;;;38.90;;
13331;SDS011;6735;51.456;12.626;2022-08-19T06:53:37;41.67;;;37.57;;
13331;SDS011;6735;51.456;12.626;2022-08-19T06:56:04;40.80;;;36.80;;
13331;SDS011;6735;51.456;12.626;2022-08-19T06:58:30;93.97;;;44.97;;
13331;SDS011;6735;51.456;12.626;2022-08-19T07:01:00;249.90;;;60.43;;
13331;SDS011;6735;51.456;12.626;2022-08-19T07:03:28;43.03;;;38.43;;
13331;SDS011;6735;51.456;12.626;2022-08-19T07:05:56;40.27;;;36.47;;
13331;SDS011;6735;51.456;12.626;2022-08-19T07:08:22;40.10;;;36.37;;
13331;SDS011;6735;51.456;12.626;2022-08-19T07:10:47;38.60;;;34.60;;
13331;SDS011;6735;51.456;12.626;2022-08-19T07:13:13;38.60;;;35.00;;
13331;SDS011;6735;51.456;12.626;2022-08-19T07:15:39;38.63;;;34.93;;
13331;SDS011;6735;51.456;12.626;2022-08-19T07:18:05;38.43;;;34.73;;
13331;SDS011;6735;51.456;12.626;2022-08-19T07:20:30;38.07;;;34.57;;
13331;SDS011;6735;51.456;12.626;2022-08-19T07:22:57;37.40;;;34.00;;
13331;SDS011;6735;51.456;12.626;2022-08-19T07:25:23;36.80;;;33.53;;
13331;SDS011;6735;51.456;12.626;2022-08-19T07:27:48;37.03;;;33.63;;
13331;SDS011;6735;51.456;12.626;2022-08-19T07:30:15;36.00;;;32.70;;
13331;SDS011;6735;51.456;12.626;2022-08-19T07:32:40;35.93;;;32.63;;
13331;SDS011;6735;51.456;12.626;2022-08-19T07:35:07;37.07;;;33.50;;
13331;SDS011;6735;51.456;12.626;2022-08-19T07:37:34;40.47;;;36.63;;
13331;SDS011;6735;51.456;12.626;2022-08-19T07:40:02;44.87;;;40.33;;
13331;SDS011;6735;51.456;12.626;2022-08-19T07:42:29;46.37;;;41.60;;
13331;SDS011;6735;51.456;12.626;2022-08-19T07:44:55;45.47;;;41.07;;
13331;SDS011;6735;51.456;12.626;2022-08-19T07:47:20;46.70;;;42.10;;
13331;SDS011;6735;51.456;12.626;2022-08-19T07:49:46;48.87;;;44.07;;
13331;SDS011;6735;51.456;12.626;2022-08-19T07:52:12;46.40;;;41.80;;
13331;SDS011;6735;51.456;12.626;2022-08-19T07:54:38;47.83;;;43.07;;
13331;SDS011;6735;51.456;12.626;2022-08-19T07:57:06;45.33;;;40.83;;
13331;SDS011;6735;51.456;12.626;2022-08-19T07:59:31;44.37;;;39.90;;
13331;SDS011;6735;51.456;12.626;2022-08-19T08:01:58;44.10;;;39.47;;
13331;SDS011;6735;51.456;12.626;2022-08-19T08:04:27;44.53;;;40.27;;
13331;SDS011;6735;51.456;12.626;2022-08-19T08:07:12;44.40;;;40.10;;
13331;SDS011;6735;51.456;12.626;2022-08-19T08:09:56;47.43;;;42.00;;
13331;SDS011;6735;51.456;12.626;2022-08-19T08:12:24;49.10;;;43.87;;
13331;SDS011;6735;51.456;12.626;2022-08-19T08:14:53;52.03;;;46.67;;
13331;SDS011;6735;51.456;12.626;2022-08-19T08:17:21;54.03;;;47.27;;
13331;SDS011;6735;51.456;12.626;2022-08-19T08:19:49;53.23;;;47.43;;
13331;SDS011;6735;51.456;12.626;2022-08-19T08:22:16;55.20;;;46.90;;
13331;SDS011;6735;51.456;12.626;2022-08-19T08:25:04;52.03;;;46.33;;
13331;SDS011;6735;51.456;12.626;2022-08-19T08:27:36;51.60;;;46.07;;
13331;SDS011;6735;51.456;12.626;2022-08-19T08:30:04;54.47;;;47.77;;
13331;SDS011;6735;51.456;12.626;2022-08-19T08:32:33;56.33;;;46.67;;
13331;SDS011;6735;51.456;12.626;2022-08-19T08:34:59;54.60;;;45.40;;
13331;SDS011;6735;51.456;12.626;2022-08-19T08:37:25;51.87;;;46.53;;
13331;SDS011;6735;51.456;12.626;2022-08-19T08:39:50;55.17;;;46.43;;
13331;SDS011;6735;51.456;12.626;2022-08-19T08:42:24;51.37;;;45.80;;
13331;SDS011;6735;51.456;12.626;2022-08-19T08:45:00;50.60;;;45.30;;
13331;SDS011;6735;51.456;12.626;2022-08-19T08:47:36;51.17;;;45.53;;
13331;SDS011;6735;51.456;12.626;2022-08-19T08:50:16;50.03;;;44.87;;
13331;SDS011;6735;51.456;12.626;2022-08-19T08:52:48;47.67;;;42.90;;
13331;SDS011;6735;51.456;12.626;2022-08-19T08:55:19;49.20;;;43.97;;
13331;SDS011;6735;51.456;12.626;2022-08-19T09:00:18;45.20;;;40.53;;
13331;SDS011;6735;51.456;12.626;2022-08-19T09:02:50;45.60;;;40.80;;
13331;SDS011;6735;51.456;12.626;2022-08-19T09:05:15;43.67;;;39.27;;
13331;SDS011;6735;51.456;12.626;2022-08-19T09:08:33;42.93;;;38.73;;
13331;SDS011;6735;51.456;12.626;2022-08-19T09:10:39;43.70;;;39.17;;
13331;SDS011;6735;51.456;12.626;2022-08-19T09:13:27;42.33;;;38.33;;
13331;SDS011;6735;51.456;12.626;2022-08-19T09:16:20;42.37;;;38.37;;
13331;SDS011;6735;51.456;12.626;2022-08-19T09:18:51;40.50;;;36.57;;
13331;SDS011;6735;51.456;12.626;2022-08-19T09:21:19;40.57;;;36.60;;
13331;SDS011;6735;51.456;12.626;2022-08-19T09:23:45;39.93;;;36.13;;
13331;SDS011;6735;51.456;12.626;2022-08-19T09:26:15;38.47;;;34.77;;
13331;SDS011;6735;51.456;12.626;2022-08-19T09:28:43;40.67;;;36.70;;
13331;SDS011;6735;51.456;12.626;2022-08-19T09:31:11;41.30;;;37.10;;
13331;SDS011;6735;51.456;12.626;2022-08-19T09:33:38;42.00;;;38.00;;
13331;SDS011;6735;51.456;12.626;2022-08-19T09:36:04;43.77;;;39.30;;
13331;SDS011;6735;51.456;12.626;2022-08-19T09:38:32;43.10;;;38.73;;
13331;SDS011;6735;51.456;12.626;2022-08-19T09:41:02;44.50;;;40.03;;
13331;SDS011;6735;51.456;12.626;2022-08-19T09:43:38;44.37;;;39.87;;
13331;SDS011;6735;51.456;12.626;2022-08-19T09:46:06;45.37;;;40.97;;
13331;SDS011;6735;51.456;12.626;2022-08-19T09:48:34;46.33;;;41.73;;
13331;SDS011;6735;51.456;12.626;2022-08-19T09:51:07;47.27;;;42.67;;
13331;SDS011;6735;51.456;12.626;2022-08-19T09:53:35;45.73;;;41.13;;
13331;SDS011;6735;51.456;12.626;2022-08-19T09:56:02;45.30;;;40.70;;
13331;SDS011;6735;51.456;12.626;2022-08-19T09:58:29;41.20;;;37.13;;
13331;SDS011;6735;51.456;12.626;2022-08-19T10:00:55;42.37;;;38.47;;
13331;SDS011;6735;51.456;12.626;2022-08-19T10:03:23;39.40;;;35.63;;
13331;SDS011;6735;51.456;12.626;2022-08-19T10:05:49;41.30;;;37.17;;
13331;SDS011;6735;51.456;12.626;2022-08-19T10:08:16;40.17;;;36.60;;
13331;SDS011;6735;51.456;12.626;2022-08-19T10:10:47;38.13;;;34.73;;
13331;SDS011;6735;51.456;12.626;2022-08-19T10:13:16;37.77;;;34.03;;
13331;SDS011;6735;51.456;12.626;2022-08-19T10:15:46;39.30;;;35.63;;
13331;SDS011;6735;51.456;12.626;2022-08-19T10:18:15;36.33;;;33.07;;
13331;SDS011;6735;51.456;12.626;2022-08-19T10:20:42;36.87;;;33.30;;
13331;SDS011;6735;51.456;12.626;2022-08-19T10:23:08;35.07;;;31.70;;
13331;SDS011;6735;51.456;12.626;2022-08-19T10:25:34;34.10;;;31.17;;
13331;SDS011;6735;51.456;12.626;2022-08-19T10:27:59;31.70;;;29.03;;
13331;SDS011;6735;51.456;12.626;2022-08-19T10:30:25;32.20;;;29.43;;
13331;SDS011;6735;51.456;12.626;2022-08-19T10:32:51;32.93;;;30.13;;
13331;SDS011;6735;51.456;12.626;2022-08-19T10:35:16;31.80;;;29.07;;
13331;SDS011;6735;51.456;12.626;2022-08-19T10:37:42;32.53;;;29.53;;
13331;SDS011;6735;51.456;12.626;2022-08-19T10:40:07;32.13;;;29.23;;
13331;SDS011;6735;51.456;12.626;2022-08-19T10:42:35;32.73;;;29.83;;
13331;SDS011;6735;51.456;12.626;2022-08-19T10:45:01;31.43;;;28.50;;
13331;SDS011;6735;51.456;12.626;2022-08-19T10:47:27;31.27;;;28.27;;
13331;SDS011;6735;51.456;12.626;2022-08-19T10:49:53;31.83;;;28.90;;
13331;SDS011;6735;51.456;12.626;2022-08-19T10:52:42;32.20;;;29.40;;
13331;SDS011;6735;51.456;12.626;2022-08-19T10:55:09;31.17;;;28.30;;
13331;SDS011;6735;51.456;12.626;2022-08-19T10:57:54;30.77;;;27.70;;
13331;SDS011;6735;51.456;12.626;2022-08-19T11:00:20;30.63;;;28.03;;
13331;SDS011;6735;51.456;12.626;2022-08-19T11:02:47;31.73;;;29.13;;
13331;SDS011;6735;51.456;12.626;2022-08-19T11:05:13;33.03;;;29.97;;
13331;SDS011;6735;51.456;12.626;2022-08-19T11:07:40;32.40;;;29.70;;
13331;SDS011;6735;51.456;12.626;2022-08-19T11:10:06;32.07;;;29.37;;
13331;SDS011;6735;51.456;12.626;2022-08-19T11:12:35;31.73;;;29.03;;
13331;SDS011;6735;51.456;12.626;2022-08-19T11:15:03;29.63;;;27.13;;
13331;SDS011;6735;51.456;12.626;2022-08-19T11:17:29;31.93;;;29.03;;
13331;SDS011;6735;51.456;12.626;2022-08-19T11:19:56;31.03;;;28.43;;
13331;SDS011;6735;51.456;12.626;2022-08-19T11:22:22;29.70;;;27.20;;
13331;SDS011;6735;51.456;12.626;2022-08-19T11:24:47;29.30;;;27.07;;
13331;SDS011;6735;51.456;12.626;2022-08-19T11:27:13;29.70;;;27.20;;
13331;SDS011;6735;51.456;12.626;2022-08-19T11:29:39;31.33;;;28.37;;
13331;SDS011;6735;51.456;12.626;2022-08-19T11:32:05;30.07;;;27.57;;
13331;SDS011;6735;51.456;12.626;2022-08-19T11:34:33;30.13;;;27.43;;
13331;SDS011;6735;51.456;12.626;2022-08-19T11:37:00;31.03;;;28.03;;
13331;SDS011;6735;51.456;12.626;2022-08-19T11:39:29;31.20;;;27.93;;
13331;SDS011;6735;51.456;12.626;2022-08-19T11:41:57;31.17;;;28.37;;
13331;SDS011;6735;51.456;12.626;2022-08-19T11:44:23;29.27;;;26.73;;
13331;SDS011;6735;51.456;12.626;2022-08-19T11:46:50;28.73;;;26.33;;
13331;SDS011;6735;51.456;12.626;2022-08-19T11:49:17;28.33;;;25.63;;
13331;SDS011;6735;51.456;12.626;2022-08-19T11:51:44;29.13;;;26.37;;
13331;SDS011;6735;51.456;12.626;2022-08-19T11:54:15;28.53;;;25.93;;
13331;SDS011;6735;51.456;12.626;2022-08-19T11:56:41;262.33;;;44.10;;
13331;SDS011;6735;51.456;12.626;2022-08-19T11:59:07;29.00;;;26.10;;
13331;SDS011;6735;51.456;12.626;2022-08-19T12:01:33;29.90;;;26.77;;
13331;SDS011;6735;51.456;12.626;2022-08-19T12:03:59;28.03;;;25.40;;
13331;SDS011;6735;51.456;12.626;2022-08-19T12:06:26;26.33;;;24.10;;
13331;SDS011;6735;51.456;12.626;2022-08-19T12:08:58;442.20;;;62.23;;
13331;SDS011;6735;51.456;12.626;2022-08-19T12:11:25;26.13;;;23.57;;
13331;SDS011;6735;51.456;12.626;2022-08-19T12:13:51;34.73;;;23.03;;
13331;SDS011;6735;51.456;12.626;2022-08-19T12:16:19;23.63;;;21.57;;
13331;SDS011;6735;51.456;12.626;2022-08-19T12:18:48;24.00;;;21.77;;
13331;SDS011;6735;51.456;12.626;2022-08-19T12:21:16;23.43;;;21.53;;
13331;SDS011;6735;51.456;12.626;2022-08-19T12:23:48;21.87;;;20.07;;
13331;SDS011;6735;51.456;12.626;2022-08-19T12:26:14;23.37;;;21.17;;
13331;SDS011;6735;51.456;12.626;2022-08-19T12:28:40;22.70;;;20.70;;
13331;SDS011;6735;51.456;12.626;2022-08-19T12:31:06;21.90;;;20.23;;
13331;SDS011;6735;51.456;12.626;2022-08-19T12:33:32;22.33;;;20.40;;
13331;SDS011;6735;51.456;12.626;2022-08-19T12:36:01;20.17;;;18.63;;
13331;SDS011;6735;51.456;12.626;2022-08-19T12:38:28;23.83;;;21.43;;
13331;SDS011;6735;51.456;12.626;2022-08-19T12:40:54;22.73;;;20.73;;
13331;SDS011;6735;51.456;12.626;2022-08-19T12:43:20;683.63;;;82.73;;
13331;SDS011;6735;51.456;12.626;2022-08-19T12:45:46;37.43;;;22.40;;
13331;SDS011;6735;51.456;12.626;2022-08-19T12:48:12;24.70;;;22.07;;
13331;SDS011;6735;51.456;12.626;2022-08-19T12:50:41;47.00;;;24.77;;
13331;SDS011;6735;51.456;12.626;2022-08-19T12:53:10;29.17;;;21.77;;
13331;SDS011;6735;51.456;12.626;2022-08-19T12:55:36;23.30;;;20.93;;
13331;SDS011;6735;51.456;12.626;2022-08-19T12:58:01;143.57;;;31.63;;
13331;SDS011;6735;51.456;12.626;2022-08-19T13:00:27;29.07;;;21.53;;
13331;SDS011;6735;51.456;12.626;2022-08-19T13:02:53;121.80;;;30.43;;
13331;SDS011;6735;51.456;12.626;2022-08-19T13:05:20;25.53;;;23.03;;
13331;SDS011;6735;51.456;12.626;2022-08-19T13:07:48;25.53;;;23.43;;
13331;SDS011;6735;51.456;12.626;2022-08-19T13:10:16;25.47;;;23.17;;
13331;SDS011;6735;51.456;12.626;2022-08-19T13:12:44;27.57;;;23.47;;
13331;SDS011;6735;51.456;12.626;2022-08-19T13:15:10;41.50;;;23.93;;
13331;SDS011;6735;51.456;12.626;2022-08-19T13:17:37;25.37;;;22.57;;
13331;SDS011;6735;51.456;12.626;2022-08-19T13:20:03;25.37;;;23.03;;
13331;SDS011;6735;51.456;12.626;2022-08-19T13:22:31;25.60;;;23.57;;
13331;SDS011;6735;51.456;12.626;2022-08-19T13:24:56;25.10;;;22.73;;
13331;SDS011;6735;51.456;12.626;2022-08-19T13:27:22;24.50;;;22.50;;
13331;SDS011;6735;51.456;12.626;2022-08-19T13:29:47;25.43;;;23.17;;
13331;SDS011;6735;51.456;12.626;2022-08-19T13:32:42;24.83;;;22.73;;
13331;SDS011;6735;51.456;12.626;2022-08-19T13:35:26;26.80;;;24.70;;
13331;SDS011;6735;51.456;12.626;2022-08-19T13:37:51;26.30;;;24.03;;
13331;SDS011;6735;51.456;12.626;2022-08-19T13:40:21;25.40;;;23.20;;
13331;SDS011;6735;51.456;12.626;2022-08-19T13:42:49;25.93;;;23.37;;
13331;SDS011;6735;51.456;12.626;2022-08-19T13:45:17;25.70;;;23.50;;
13331;SDS011;6735;51.456;12.626;2022-08-19T13:47:45;25.87;;;23.53;;
13331;SDS011;6735;51.456;12.626;2022-08-19T13:50:13;25.07;;;22.93;;
13331;SDS011;6735;51.456;12.626;2022-08-19T13:52:41;24.97;;;22.87;;
13331;SDS011;6735;51.456;12.626;2022-08-19T13:55:07;25.57;;;23.37;;
13331;SDS011;6735;51.456;12.626;2022-08-19T13:57:34;25.33;;;23.23;;
13331;SDS011;6735;51.456;12.626;2022-08-19T14:00:01;25.50;;;23.30;;
13331;SDS011;6735;51.456;12.626;2022-08-19T14:02:27;24.17;;;21.93;;
13331;SDS011;6735;51.456;12.626;2022-08-19T14:04:53;25.63;;;23.07;;
13331;SDS011;6735;51.456;12.626;2022-08-19T14:07:18;46.20;;;24.13;;
13331;SDS011;6735;51.456;12.626;2022-08-19T14:09:44;32.07;;;22.57;;
13331;SDS011;6735;51.456;12.626;2022-08-19T14:12:09;29.93;;;22.20;;
13331;SDS011;6735;51.456;12.626;2022-08-19T14:14:38;24.63;;;22.23;;
13331;SDS011;6735;51.456;12.626;2022-08-19T14:17:07;23.93;;;21.83;;
13331;SDS011;6735;51.456;12.626;2022-08-19T14:19:34;42.37;;;22.77;;
13331;SDS011;6735;51.456;12.626;2022-08-19T14:22:00;23.43;;;21.53;;
13331;SDS011;6735;51.456;12.626;2022-08-19T14:24:25;67.73;;;25.07;;
13331;SDS011;6735;51.456;12.626;2022-08-19T14:26:51;24.17;;;22.17;;
13331;SDS011;6735;51.456;12.626;2022-08-19T14:29:17;24.17;;;21.67;;